Time;durP1;ratioP1;P1;durP2;ratioP2;P2;SDS_P1;SDS_P2;PMS_P1;PMS_P2;Temp;Humidity;BMP_temperature;BMP_pressure;BME280_temperature;BME280_humidity;BME280_pressure;Samples;Min_cycle;Max_cycle;Signal;HPM_P1;HPM_P2
2023/09/11 00:01:02;;;;;;;15.43;13.05;;;17.90;99.90;;;-141.84;84.19;20663.47;5037701;28;20621;-61
2023/09/11 00:03:30;;;;;;;14.50;13.10;;;17.90;99.90;;;-141.84;84.09;20708.19;5044746;28;20564;-61
2023/09/11 00:06:06;;;;;;;14.45;13.02;;;17.90;99.90;;;-141.84;84.35;20693.94;5044757;28;20727;-62
2023/09/11 00:08:35;;;;;;;14.40;13.10;;;17.90;99.90;;;-141.84;84.76;20655.31;5045277;28;20656;-61
2023/09/11 00:11:04;;;;;;;14.68;12.93;;;17.90;99.90;;;-141.84;84.96;20643.13;5035849;28;20225;-63
2023/09/11 00:13:32;;;;;;;16.98;14.15;;;17.80;99.90;;;-141.84;85.10;20667.53;5044870;28;20244;-61
2023/09/11 00:16:00;;;;;;;14.60;13.10;;;17.90;99.90;;;-141.84;85.20;20655.31;5044438;28;20286;-62
2023/09/11 00:18:29;;;;;;;14.32;12.93;;;17.80;99.90;;;-141.84;85.49;20643.13;5041208;28;20303;-62
2023/09/11 00:20:57;;;;;;;15.85;13.85;;;17.80;99.90;;;-141.84;85.61;20604.50;5036540;28;20271;-64
2023/09/11 00:23:27;;;;;;;15.60;14.00;;;17.90;99.90;;;-141.84;85.82;20612.63;5044999;28;20676;-63
2023/09/11 00:25:56;;;;;;;14.00;12.60;;;17.70;99.90;;;-141.84;86.02;20659.38;5044027;28;20228;-62
2023/09/11 00:28:24;;;;;;;15.98;13.20;;;17.70;99.90;;;-141.84;86.12;20622.81;5044802;28;20308;-63
2023/09/11 00:30:52;;;;;;;14.65;13.25;;;17.70;99.90;;;-141.84;86.32;20632.97;5037117;28;20229;-62
2023/09/11 00:33:21;;;;;;;14.52;13.05;;;17.60;99.90;;;-141.84;86.55;20590.28;5043513;28;20653;-62
2023/09/11 00:35:49;;;;;;;14.50;13.10;;;17.60;99.90;;;-141.84;86.89;20604.50;5044618;28;20204;-62
2023/09/11 00:38:18;;;;;;;16.17;12.98;;;17.60;99.90;;;-141.84;86.96;20574.00;5044220;28;20402;-62
2023/09/11 00:40:47;;;;;;;15.80;13.52;;;17.60;99.90;;;-141.84;86.85;20612.63;5036723;28;20222;-62
2023/09/11 00:43:15;;;;;;;14.88;13.27;;;17.60;99.90;;;-141.84;86.59;20590.28;5044094;28;20643;-62
2023/09/11 00:45:44;;;;;;;16.40;12.68;;;17.60;99.90;;;-141.84;86.93;20592.31;5044042;28;20292;-62
2023/09/11 00:48:13;;;;;;;13.93;12.50;;;17.50;99.90;;;-141.84;86.87;20590.28;5044226;28;20259;-61
2023/09/11 00:50:44;;;;;;;13.93;12.63;;;17.50;99.90;;;-141.84;87.05;20549.63;5036543;28;20289;-63
2023/09/11 00:53:13;;;;;;;13.77;12.48;;;17.50;99.90;;;-141.84;86.82;20547.59;5043182;28;20294;-62
2023/09/11 00:55:45;;;;;;;14.30;12.90;;;17.50;99.90;;;-141.84;86.59;20584.19;5043780;28;20736;-63
2023/09/11 00:58:17;;;;;;;14.32;12.82;;;17.50;99.90;;;-141.84;86.78;20608.56;5043890;28;20303;-62
2023/09/11 01:00:46;;;;;;;14.52;13.13;;;17.50;99.90;;;-141.84;86.69;20582.16;5036542;28;20312;-62
2023/09/11 01:03:16;;;;;;;13.77;12.45;;;17.50;99.90;;;-141.84;86.39;20576.03;5043955;28;20624;-63
2023/09/11 01:05:46;;;;;;;13.73;12.32;;;17.50;99.90;;;-141.84;86.38;20565.88;5044042;28;20247;-61
2023/09/11 01:08:14;;;;;;;13.40;12.13;;;17.50;99.90;;;-141.84;86.77;20574.00;5042711;28;20602;-63
2023/09/11 01:10:42;;;;;;;15.63;14.13;;;17.50;99.90;;;-141.84;86.64;20559.78;5035256;28;20260;-62
2023/09/11 01:13:11;;;;;;;15.00;13.43;;;17.50;99.90;;;-141.84;86.25;20565.88;5042934;28;20312;-62
2023/09/11 01:15:50;;;;;;;14.27;12.77;;;17.40;99.90;;;-141.84;85.74;20557.75;5043037;28;20229;-63
2023/09/11 01:18:31;;;;;;;14.45;12.98;;;17.50;99.90;;;-141.84;85.28;20551.66;5039583;28;20252;-62
2023/09/11 01:21:38;;;;;;;14.80;13.40;;;17.50;99.90;;;-141.84;84.71;20553.69;5034899;28;20224;-61
2023/09/11 01:24:32;;;;;;;14.88;13.00;;;17.40;99.90;;;-141.84;84.61;20553.69;5034734;28;20197;-62
2023/09/11 01:27:53;;;;;;;17.83;12.98;;;17.50;99.90;;;-141.84;84.91;20559.78;5034629;28;20308;-62
2023/09/11 01:30:26;;;;;;;15.20;13.60;;;17.40;99.90;;;-141.84;85.31;20533.34;5042637;28;20249;-62
2023/09/11 01:32:55;;;;;;;14.73;13.43;;;17.40;99.90;;;-141.84;85.24;20513.03;5035718;28;20241;-62
2023/09/11 01:35:23;;;;;;;14.30;13.00;;;17.30;99.90;;;-141.84;85.20;20580.13;5042627;28;20609;-62
2023/09/11 01:37:55;;;;;;;15.10;13.55;;;17.40;99.90;;;-141.84;84.68;20561.81;5042081;28;20229;-64
2023/09/11 01:40:27;;;;;;;14.52;13.13;;;17.40;99.90;;;-141.84;84.67;20545.56;5042731;28;20217;-62
2023/09/11 01:42:58;;;;;;;13.90;12.48;;;17.40;99.90;;;-141.84;85.08;20537.44;5034503;28;20233;-64
2023/09/11 01:45:32;;;;;;;14.57;12.93;;;17.30;99.90;;;-141.84;85.38;20549.63;5046578;28;20300;-62
2023/09/11 01:48:03;;;;;;;14.85;13.45;;;17.30;99.90;;;-141.84;85.74;20504.91;5047063;28;20301;-61
2023/09/11 01:50:35;;;;;;;14.60;13.13;;;17.30;99.90;;;-141.84;85.77;20529.28;5034010;28;20212;-63
2023/09/11 01:53:05;;;;;;;16.67;13.52;;;17.20;99.90;;;-141.84;85.75;20537.44;5020129;28;21378;-61
2023/09/11 01:55:34;;;;;;;14.40;13.00;;;17.20;99.90;;;-141.84;85.35;20549.63;5043177;28;20233;-62
2023/09/11 01:58:02;;;;;;;15.15;13.15;;;17.20;99.90;;;-141.84;85.15;20521.16;5046557;28;20244;-62
2023/09/11 02:00:32;;;;;;;14.07;12.77;;;17.20;99.90;;;-141.84;85.47;20541.50;5047315;28;20792;-62
2023/09/11 02:03:01;;;;;;;14.95;13.45;;;17.20;99.90;;;-141.84;85.22;20488.63;5039582;28;20268;-62
2023/09/11 02:05:30;;;;;;;14.15;12.75;;;17.10;99.90;;;-141.84;84.92;20513.03;5047390;28;20245;-62
2023/09/11 02:07:58;;;;;;;14.23;12.93;;;17.10;99.90;;;-141.84;84.59;20513.03;5046782;28;20232;-62
2023/09/11 02:10:26;;;;;;;13.68;12.38;;;17.10;99.90;;;-141.84;84.19;20504.91;5047203;28;20775;-62
2023/09/11 02:12:54;;;;;;;14.40;13.00;;;17.10;99.90;;;-141.84;84.53;20492.72;5039011;28;20324;-62
2023/09/11 02:15:23;;;;;;;15.07;13.25;;;17.10;99.90;;;-141.84;84.50;20515.06;5046893;28;20243;-61
2023/09/11 02:17:52;;;;;;;14.48;13.00;;;17.10;99.90;;;-141.84;84.20;20482.53;5047282;28;20612;-61
2023/09/11 02:20:21;;;;;;;14.07;12.77;;;17.10;99.90;;;-141.84;84.01;20539.47;5046951;28;20635;-62
2023/09/11 02:22:49;;;;;;;13.85;12.38;;;17.10;99.90;;;-141.84;83.59;20523.19;5038743;28;20244;-63
2023/09/11 02:25:17;;;;;;;15.68;13.25;;;17.10;99.90;;;-141.84;83.58;20506.94;5045898;28;20251;-62
2023/09/11 02:27:45;;;;;;;13.13;11.82;;;17.10;99.90;;;-141.84;83.57;20488.63;5046451;28;20304;-62
2023/09/11 02:30:13;;;;;;;13.98;12.35;;;17.00;99.90;;;-141.84;84.04;20525.22;5046352;28;20210;-62
2023/09/11 02:32:42;;;;;;;14.15;12.60;;;17.00;99.90;;;-141.84;84.13;20474.41;5039546;28;20720;-61
2023/09/11 02:35:11;;;;;;;14.90;12.85;;;17.00;99.90;;;-141.84;84.63;20508.97;5046563;28;20717;-62
2023/09/11 02:37:40;;;;;;;13.38;12.00;;;16.90;99.90;;;-141.84;84.99;20458.16;5045829;28;20260;-61
2023/09/11 02:40:11;;;;;;;13.43;12.02;;;16.90;99.90;;;-141.84;85.10;20482.53;5045757;28;20732;-62
2023/09/11 02:42:39;;;;;;;14.43;12.88;;;16.90;99.90;;;-141.84;85.08;20460.19;5044663;28;20278;-62
2023/09/11 02:45:09;;;;;;;13.95;12.45;;;16.90;99.90;;;-141.84;85.33;20460.19;5042402;28;20301;-62
2023/09/11 02:47:37;;;;;;;14.02;12.52;;;16.80;99.90;;;-141.84;85.68;20431.72;5046148;28;20308;-62
2023/09/11 02:50:07;;;;;;;13.80;12.38;;;16.80;99.90;;;-141.84;85.83;20443.91;5045732;28;20245;-61
2023/09/11 02:52:37;;;;;;;13.77;12.48;;;16.80;99.90;;;-141.84;86.06;20393.09;5046505;28;20231;-62
2023/09/11 02:55:06;;;;;;;15.52;12.52;;;16.70;99.90;;;-141.84;85.95;20460.19;5001359;28;20234;-61
2023/09/11 02:57:34;;;;;;;14.55;13.05;;;16.70;99.90;;;-141.84;85.92;20425.63;5005859;28;20230;-61
2023/09/11 03:00:06;;;;;;;13.70;12.45;;;16.70;99.90;;;-141.84;86.43;20423.59;5026582;28;20229;-63
2023/09/11 03:02:34;;;;;;;13.38;12.02;;;16.70;99.90;;;-141.84;86.79;20407.34;5026987;28;20252;-62
2023/09/11 03:05:02;;;;;;;14.15;12.73;;;16.70;99.90;;;-141.84;87.26;20411.41;5018567;28;20647;-63
2023/09/11 03:07:30;;;;;;;13.95;12.25;;;16.70;99.90;;;-141.84;87.51;20411.41;5026522;28;20261;-62
2023/09/11 03:10:00;;;;;;;13.32;12.02;;;16.60;99.90;;;-141.84;87.47;20431.72;5026323;28;20288;-62
2023/09/11 03:12:29;;;;;;;13.20;11.85;;;16.60;99.90;;;-141.84;86.94;20441.88;5007566;28;20714;-61
2023/09/11 03:15:03;;;;;;;14.13;12.60;;;16.60;99.90;;;-141.84;87.08;20405.31;4999295;28;20628;-63
2023/09/11 03:17:31;;;;;;;13.63;12.35;;;16.60;99.90;;;-141.84;87.50;20437.81;5005905;28;20642;-63
2023/09/11 03:19:59;;;;;;;13.70;12.50;;;16.60;99.90;;;-141.84;87.76;20391.06;5005982;28;20239;-61
2023/09/11 03:22:29;;;;;;;13.15;11.95;;;16.60;99.90;;;-141.84;88.20;20372.78;5006251;28;20227;-62
2023/09/11 03:24:58;;;;;;;13.27;11.95;;;16.50;99.90;;;-141.84;88.53;20395.13;4998715;28;20238;-62
2023/09/11 03:27:27;;;;;;;13.30;12.00;;;16.50;99.90;;;-141.84;88.75;20380.91;5005767;28;20231;-62
2023/09/11 03:29:55;;;;;;;13.43;11.65;;;16.50;99.90;;;-141.84;88.79;20405.31;5005194;28;20206;-63
2023/09/11 03:32:24;;;;;;;12.98;11.68;;;16.50;99.90;;;-141.84;88.65;20393.09;5006037;28;20260;-62
2023/09/11 03:34:54;;;;;;;14.93;12.50;;;16.50;99.90;;;-141.84;88.67;20356.50;4998489;28;20658;-63
2023/09/11 03:37:23;;;;;;;12.52;11.23;;;16.50;99.90;;;-141.84;88.63;20354.47;5005724;28;20239;-62
2023/09/11 03:39:52;;;;;;;13.35;11.95;;;16.40;99.90;;;-141.84;88.68;20393.09;5005712;28;20302;-62
2023/09/11 03:42:21;;;;;;;13.65;12.35;;;16.40;99.90;;;-141.84;89.00;20342.28;5004771;28;20253;-62
2023/09/11 03:44:51;;;;;;;13.30;11.90;;;16.40;99.90;;;-141.84;89.01;20326.03;4998825;28;20302;-60
2023/09/11 03:47:19;;;;;;;13.77;12.40;;;16.40;99.90;;;-141.84;88.91;20326.03;5004830;28;20234;-62
2023/09/11 03:49:47;;;;;;;12.68;11.38;;;16.30;99.90;;;-141.84;88.66;20389.03;5005765;28;20261;-62
2023/09/11 03:52:15;;;;;;;13.95;12.55;;;16.30;99.90;;;-141.84;88.30;20334.16;5005840;28;20360;-62
2023/09/11 03:54:43;;;;;;;14.05;12.73;;;16.30;99.90;;;-141.84;88.45;20324.00;5031914;28;20293;-62
2023/09/11 03:57:12;;;;;;;14.05;12.70;;;16.40;99.90;;;-141.84;88.23;20313.84;5044603;28;20237;-62
2023/09/11 03:59:40;;;;;;;13.40;11.95;;;16.30;99.90;;;-141.84;88.31;20289.44;5044950;28;20213;-61
2023/09/11 04:02:10;;;;;;;13.40;12.00;;;16.30;99.90;;;-141.84;88.20;20307.72;5044312;28;20316;-62
2023/09/11 04:04:38;;;;;;;14.40;11.80;;;16.30;99.90;;;-141.84;88.34;20305.69;5044366;28;20336;-63
2023/09/11 04:07:07;;;;;;;13.80;12.20;;;16.20;99.90;;;-141.84;88.38;20289.44;5041076;28;20245;-62
2023/09/11 04:09:35;;;;;;;13.27;12.00;;;16.20;99.90;;;-141.84;88.45;20336.19;5044511;28;20221;-62
2023/09/11 04:12:05;;;;;;;13.75;12.25;;;16.20;99.90;;;-141.84;88.32;20313.84;5044583;28;20546;-62
2023/09/11 04:14:37;;;;;;;13.50;12.10;;;16.20;99.90;;;-141.84;88.14;20317.91;5044246;28;20213;-62
2023/09/11 04:17:05;;;;;;;13.27;11.98;;;16.20;99.90;;;-141.84;87.97;20289.44;5039883;28;20229;-63
2023/09/11 04:19:35;;;;;;;13.82;12.43;;;16.20;99.90;;;-141.84;87.91;20321.97;5044426;28;20279;-63
2023/09/11 04:22:04;;;;;;;13.73;12.40;;;16.20;99.90;;;-141.84;87.90;20281.31;5044568;28;20312;-62
2023/09/11 04:24:33;;;;;;;13.48;12.07;;;16.20;99.90;;;-141.84;87.76;20305.69;5043784;28;20735;-62
2023/09/11 04:27:02;;;;;;;12.95;11.65;;;16.20;99.90;;;-141.84;87.81;20326.03;5032533;28;20340;-63
2023/09/11 04:29:31;;;;;;;12.95;11.75;;;16.20;99.90;;;-141.84;87.90;20307.72;5025250;28;20582;-62
2023/09/11 04:31:59;;;;;;;13.07;11.77;;;16.20;99.90;;;-141.84;87.56;20309.75;5024301;28;20234;-63
2023/09/11 04:34:27;;;;;;;13.57;12.15;;;16.20;99.90;;;-141.84;87.68;20317.91;5024480;28;20667;-61
2023/09/11 04:36:57;;;;;;;12.35;11.15;;;16.20;99.90;;;-141.84;87.80;20317.91;5016968;28;20611;-62
2023/09/11 04:39:25;;;;;;;12.38;11.23;;;16.20;99.90;;;-141.84;87.80;20260.97;5023786;28;20237;-61
2023/09/11 04:41:54;;;;;;;13.35;11.95;;;16.20;99.90;;;-141.84;87.99;20311.78;5024359;28;20214;-62
2023/09/11 04:44:22;;;;;;;13.63;12.15;;;16.20;99.90;;;-141.84;88.09;20277.25;5024290;28;20225;-62
2023/09/11 04:46:51;;;;;;;13.40;12.07;;;16.20;99.90;;;-141.84;88.24;20263.00;5030140;28;20225;-63
2023/09/11 04:49:19;;;;;;;13.48;12.07;;;16.20;99.90;;;-141.84;88.01;20315.88;5043452;28;20320;-65
2023/09/11 04:51:47;;;;;;;16.00;12.85;;;16.20;99.90;;;-141.84;87.77;20297.56;5042785;28;20637;-63
2023/09/11 04:54:17;;;;;;;13.05;11.68;;;16.20;99.90;;;-141.84;87.26;20352.44;5043205;28;20582;-62
2023/09/11 04:56:45;;;;;;;13.82;12.43;;;16.20;99.90;;;-141.84;87.14;20297.56;5017207;28;20258;-62
2023/09/11 04:59:14;;;;;;;13.25;11.95;;;16.30;99.90;;;-141.84;87.14;20330.09;5037956;28;20225;-62
2023/09/11 05:01:42;;;;;;;14.52;12.00;;;16.30;99.90;;;-141.84;86.82;20321.97;5043210;28;20259;-62
2023/09/11 05:04:10;;;;;;;15.35;12.00;;;16.30;99.90;;;-141.84;86.73;20330.09;5044297;28;20236;-62
2023/09/11 05:06:39;;;;;;;14.15;12.60;;;16.40;99.90;;;-141.84;84.63;20372.78;5043107;28;20227;-62
2023/09/11 05:09:07;;;;;;;18.23;15.18;;;16.50;99.90;;;-141.84;82.49;20423.59;5040143;28;20302;-61
2023/09/11 05:11:41;;;;;;;15.32;12.43;;;16.60;99.90;;;-141.84;81.23;20519.13;5043686;28;20209;-62
2023/09/11 05:14:09;;;;;;;14.65;12.60;;;16.70;99.90;;;-141.84;81.16;20506.94;5043740;28;20225;-62
2023/09/11 05:16:37;;;;;;;14.65;12.55;;;16.80;99.90;;;-141.84;80.71;20474.41;5043378;28;20229;-63
2023/09/11 05:19:06;;;;;;;13.88;12.40;;;16.80;99.90;;;-141.84;80.55;20468.31;5038683;28;20248;-63
2023/09/11 05:21:36;;;;;;;13.70;12.30;;;16.90;99.90;;;-141.84;80.20;20464.25;5042601;28;20236;-63
2023/09/11 05:24:05;;;;;;;12.98;11.25;;;17.00;99.90;;;-141.84;80.50;20504.91;5043899;28;20302;-63
2023/09/11 05:26:33;;;;;;;12.80;11.50;;;17.00;99.90;;;-141.84;80.98;20533.34;5024844;28;20253;-63
2023/09/11 05:29:03;;;;;;;16.00;12.45;;;17.10;99.90;;;-141.84;80.07;20517.09;5015732;28;20288;-62
2023/09/11 05:31:31;;;;;;;16.55;11.95;;;17.10;99.90;;;-141.84;78.72;20545.56;5022987;28;20272;-63
2023/09/11 05:33:59;;;;;;;15.05;11.80;;;17.30;99.90;;;-141.84;78.31;20618.72;5021533;28;20226;-63
2023/09/11 05:36:28;;;;;;;14.20;11.55;;;17.40;99.90;;;-141.84;77.99;20576.03;5021415;28;20230;-63
2023/09/11 05:38:56;;;;;;;14.40;12.27;;;17.60;99.90;;;-141.84;76.49;20689.88;5015092;28;20198;-62
2023/09/11 05:41:25;;;;;;;14.77;11.95;;;17.60;99.90;;;-141.84;75.00;20708.19;5022006;28;20312;-63
2023/09/11 05:43:54;;;;;;;13.98;12.50;;;17.80;99.90;;;-141.84;75.00;20704.13;5041783;28;20240;-62
2023/09/11 05:46:24;;;;;;;13.45;12.05;;;17.80;99.90;;;-141.84;74.55;20716.31;5041707;28;20278;-62
2023/09/11 05:48:52;;;;;;;13.60;12.20;;;17.90;99.90;;;-141.84;75.59;20712.25;5033484;28;20327;-62
2023/09/11 05:51:21;;;;;;;15.75;11.40;;;17.90;99.90;;;-141.84;74.22;20728.50;5041333;28;20307;-63
2023/09/11 05:53:49;;;;;;;12.95;11.63;;;17.90;99.90;;;-141.84;73.99;20746.81;5041950;28;20812;-61
2023/09/11 05:56:17;;;;;;;15.82;12.07;;;18.00;99.90;;;-141.84;73.92;20756.97;5041536;28;20790;-62
2023/09/11 05:58:46;;;;;;;15.50;12.57;;;18.00;99.90;;;-141.84;73.25;20777.28;5034145;28;20217;-62
2023/09/11 06:01:14;;;;;;;12.68;11.38;;;18.10;99.90;;;-141.84;74.15;20763.06;5041409;28;20237;-62
2023/09/11 06:03:44;;;;;;;13.02;11.60;;;18.10;99.90;;;-141.84;74.43;20734.59;5041620;28;20256;-62
2023/09/11 06:06:12;;;;;;;16.13;12.00;;;18.00;99.90;;;-141.84;73.41;20777.28;5041016;28;20201;-62
2023/09/11 06:08:41;;;;;;;13.45;11.98;;;18.10;99.90;;;-141.84;73.96;20763.06;5039127;28;20773;-62
2023/09/11 06:11:10;;;;;;;13.65;11.70;;;18.10;99.90;;;-141.84;73.82;20748.84;5041467;28;20740;-62
2023/09/11 06:13:38;;;;;;;12.88;11.63;;;18.10;99.90;;;-141.84;74.24;20736.63;5037815;28;20240;-63
2023/09/11 06:16:06;;;;;;;16.83;12.52;;;18.20;99.90;;;-141.84;73.60;20759.00;5041136;28;20252;-64
2023/09/11 06:18:34;;;;;;;12.90;11.60;;;18.30;99.90;;;-141.84;73.85;20789.50;5040959;28;20240;-64
2023/09/11 06:21:04;;;;;;;15.10;11.70;;;18.30;99.90;;;-141.84;73.54;20801.69;5033830;28;20363;-62
2023/09/11 06:23:32;;;;;;;11.48;10.27;;;18.40;99.90;;;-141.84;73.84;20803.72;5042034;28;20569;-65
2023/09/11 06:26:01;;;;;;;13.75;11.18;;;18.40;99.90;;;-141.84;73.53;20854.53;5040129;28;20328;-63
2023/09/11 06:28:29;;;;;;;13.07;11.18;;;18.50;99.90;;;-141.84;72.96;20883.00;5039645;28;20316;-62
2023/09/11 06:30:59;;;;;;;15.07;12.00;;;18.50;99.90;;;-141.84;73.24;20842.34;5034729;28;20659;-64
2023/09/11 06:33:27;;;;;;;18.02;12.07;;;18.60;99.90;;;-141.84;72.03;20923.66;5044431;28;20225;-63
2023/09/11 06:35:57;;;;;;;13.63;12.05;;;18.70;99.90;;;-141.84;71.83;20937.91;5043638;28;20205;-62
2023/09/11 06:38:26;;;;;;;13.95;12.43;;;18.80;99.90;;;-141.84;71.16;20984.66;5044671;28;20221;-62
2023/09/11 06:40:55;;;;;;;16.38;11.48;;;18.90;99.90;;;-141.84;71.99;20925.69;5037173;28;20225;-62
2023/09/11 06:43:23;;;;;;;13.57;11.23;;;18.90;99.90;;;-141.84;72.60;20946.03;5044489;28;20316;-63
2023/09/11 06:45:53;;;;;;;13.00;10.98;;;18.90;99.90;;;-141.84;72.51;20958.22;5045119;28;20329;-63
2023/09/11 06:48:22;;;;;;;12.55;10.77;;;19.00;99.90;;;-141.84;72.56;20948.06;5044494;28;20228;-63
2023/09/11 06:50:53;;;;;;;11.88;10.63;;;19.00;99.90;;;-141.84;71.88;20919.59;5037433;28;20233;-62
2023/09/11 06:53:22;;;;;;;14.45;10.98;;;19.10;99.90;;;-141.84;71.95;20964.31;5044667;28;20650;-63
2023/09/11 06:55:52;;;;;;;15.20;10.50;;;19.10;99.90;;;-141.84;71.62;20980.59;5044672;28;20233;-62
2023/09/11 06:58:20;;;;;;;14.40;11.65;;;19.20;99.90;;;-141.84;71.11;21033.44;5044614;28;20264;-63
2023/09/11 07:00:48;;;;;;;13.18;11.88;;;19.20;99.90;;;-141.84;69.85;21051.75;5036952;28;20228;-63
2023/09/11 07:03:19;;;;;;;14.05;12.40;;;19.20;99.90;;;-141.84;67.32;21206.25;5044622;28;20202;-63
2023/09/11 07:05:51;;;;;;;13.43;11.80;;;19.60;99.90;;;-141.84;67.45;21218.44;5045188;28;20237;-64
2023/09/11 07:08:19;;;;;;;14.60;12.27;;;19.80;99.90;;;-141.84;67.90;21196.09;5044162;28;20225;-62
2023/09/11 07:10:52;;;;;;;16.45;11.75;;;19.80;99.90;;;-141.84;68.52;21183.88;5036361;28;20229;-63
2023/09/11 07:13:20;;;;;;;14.73;12.82;;;19.80;99.90;;;-141.84;68.95;21163.56;5035213;28;20280;-63
2023/09/11 07:15:56;;;;;;;14.05;10.70;;;19.80;99.90;;;-141.84;68.95;21167.63;5044858;28;20225;-64
2023/09/11 07:18:25;;;;;;;14.55;11.10;;;19.90;99.90;;;-141.84;68.94;21175.75;5043839;28;20363;-62
2023/09/11 07:20:54;;;;;;;11.80;10.48;;;19.90;99.90;;;-141.84;69.25;21228.63;5037114;28;20213;-63
2023/09/11 07:23:24;;;;;;;10.63;9.57;;;20.00;99.90;;;-141.84;68.71;21192.03;5044241;28;20221;-62
2023/09/11 07:25:55;;;;;;;13.32;11.02;;;20.00;99.90;;;-141.84;68.54;21196.09;5043772;28;20235;-63
2023/09/11 07:28:26;;;;;;;12.80;11.52;;;20.10;99.90;;;-141.84;68.37;21299.78;5044288;28;20240;-63
2023/09/11 07:30:55;;;;;;;14.77;11.25;;;20.20;99.90;;;-141.84;68.47;21224.56;5037206;28;20709;-63
2023/09/11 07:33:23;;;;;;;12.13;10.82;;;20.30;99.90;;;-141.84;68.13;21265.22;5044116;28;20225;-63
2023/09/11 07:35:52;;;;;;;13.85;11.73;;;20.40;99.90;;;-141.84;67.90;21279.44;5044576;28;20210;-62
2023/09/11 07:38:20;;;;;;;16.77;11.93;;;20.40;99.90;;;-141.84;67.49;21283.50;5043699;28;20229;-62
2023/09/11 07:40:48;;;;;;;14.00;10.60;;;20.50;99.90;;;-141.84;67.53;21305.88;5035916;28;20283;-63
2023/09/11 07:43:18;;;;;;;14.35;11.82;;;20.40;99.90;;;-141.84;65.68;21385.16;5043707;28;20256;-63
2023/09/11 07:45:47;;;;;;;15.68;11.52;;;20.60;99.90;;;-141.84;66.29;21375.00;5044474;28;20229;-61
2023/09/11 07:48:17;;;;;;;16.88;12.20;;;20.70;99.90;;;-141.84;64.92;21448.19;5044132;28;20251;-62
2023/09/11 07:50:45;;;;;;;13.65;10.90;;;20.80;99.90;;;-141.84;65.23;21399.41;5036142;28;20306;-63
2023/09/11 07:53:14;;;;;;;12.80;10.35;;;20.90;99.90;;;-141.84;65.86;21407.53;5043398;28;20256;-63
2023/09/11 07:55:42;;;;;;;12.60;11.02;;;20.90;99.90;;;-141.84;65.91;21444.13;5043330;28;20233;-64
2023/09/11 07:58:12;;;;;;;10.40;9.32;;;20.90;99.90;;;-141.84;65.89;21438.03;5043128;28;20331;-63
2023/09/11 08:00:42;;;;;;;11.70;10.48;;;21.00;99.90;;;-141.84;65.44;21448.19;5041371;28;20229;-63
2023/09/11 08:03:10;;;;;;;13.65;10.70;;;21.10;99.90;;;-141.84;63.73;21539.69;5043970;28;20209;-63
2023/09/11 08:05:38;;;;;;;11.18;10.07;;;21.30;99.90;;;-141.84;63.84;21533.59;5044367;28;20212;-63
2023/09/11 08:08:07;;;;;;;15.85;11.10;;;21.30;99.90;;;-141.84;64.18;21547.81;5043451;28;20236;-63
2023/09/11 08:10:35;;;;;;;12.80;9.80;;;21.40;99.90;;;-141.84;64.27;21574.25;5042920;28;20233;-62
2023/09/11 08:13:03;;;;;;;11.55;10.48;;;21.50;99.90;;;-141.84;63.11;21619.00;5035200;28;20225;-62
2023/09/11 08:15:32;;;;;;;11.90;10.45;;;21.60;99.90;;;-141.84;63.17;21614.94;5043612;28;20310;-62
2023/09/11 08:18:01;;;;;;;13.27;9.05;;;21.70;99.90;;;-141.84;62.88;21716.59;5043356;28;20237;-62
2023/09/11 08:20:30;;;;;;;11.70;9.50;;;21.80;99.90;;;-141.84;61.97;21708.47;5043783;28;20201;-63
2023/09/11 08:22:58;;;;;;;11.25;9.10;;;21.90;99.90;;;-141.84;62.33;21736.94;5035457;28;20241;-62
2023/09/11 08:25:26;;;;;;;9.95;8.45;;;21.90;99.90;;;-141.84;62.27;21724.72;5042665;28;20282;-62
2023/09/11 08:27:54;;;;;;;10.40;9.10;;;22.10;99.90;;;-141.84;61.53;21789.78;5042943;28;20716;-62
2023/09/11 08:30:23;;;;;;;11.13;8.30;;;22.20;99.90;;;-141.84;61.16;21824.34;5042779;28;20318;-63
2023/09/11 08:32:51;;;;;;;8.98;8.02;;;22.30;99.90;;;-141.84;60.72;21897.56;5035925;28;20289;-63
2023/09/11 08:35:21;;;;;;;10.00;8.73;;;22.40;99.90;;;-141.84;59.97;21865.03;5042606;28;20229;-63
2023/09/11 08:37:49;;;;;;;12.18;8.13;;;22.60;99.90;;;-141.84;59.38;21928.06;5042996;28;20268;-64
2023/09/11 08:40:18;;;;;;;10.23;8.40;;;22.70;99.90;;;-141.84;59.01;21968.72;5042612;28;20236;-62
2023/09/11 08:42:46;;;;;;;10.55;9.05;;;22.80;99.90;;;-141.84;57.67;21995.16;5034236;28;20291;-63
2023/09/11 08:45:15;;;;;;;8.95;8.05;;;22.90;99.90;;;-141.84;57.23;21997.19;5042686;28;20213;-63
2023/09/11 08:47:46;;;;;;;10.73;9.00;;;23.00;99.90;;;-141.84;57.21;22037.88;5043672;28;20219;-63
2023/09/11 08:50:20;;;;;;;11.32;8.32;;;23.10;99.90;;;-141.84;56.77;22086.69;5042467;28;20229;-62
2023/09/11 08:52:51;;;;;;;9.85;8.63;;;23.20;99.90;;;-141.84;56.75;22104.97;5034436;28;20814;-63
2023/09/11 08:55:25;;;;;;;10.05;8.30;;;23.30;99.90;;;-141.84;56.42;22137.50;5041857;28;20241;-61
2023/09/11 08:57:56;;;;;;;9.52;8.25;;;23.40;99.90;;;-141.84;56.37;22157.84;5042409;28;20662;-63
2023/09/11 09:00:25;;;;;;;10.32;8.38;;;23.50;99.90;;;-141.84;55.08;22186.31;5043010;28;20249;-63
2023/09/11 09:02:54;;;;;;;8.48;7.68;;;23.60;99.90;;;-141.84;54.90;22224.97;5036247;28;20212;-63
2023/09/11 09:05:23;;;;;;;8.50;7.80;;;23.70;99.90;;;-141.84;54.17;22263.59;5043085;28;20295;-62
2023/09/11 09:07:54;;;;;;;10.13;8.05;;;23.80;99.90;;;-141.84;53.77;22298.16;5043069;28;20337;-64
2023/09/11 09:10:23;;;;;;;11.02;8.38;;;23.90;99.90;;;-141.84;52.66;22336.81;5042808;28;20244;-63
2023/09/11 09:12:51;;;;;;;10.70;8.30;;;24.00;99.90;;;-141.84;51.19;22365.28;5033684;28;20297;-63
2023/09/11 09:15:22;;;;;;;12.55;7.88;;;24.10;99.90;;;-141.84;51.58;22408.00;5042487;28;20319;-62
2023/09/11 09:17:51;;;;;;;10.95;8.52;;;24.20;99.90;;;-141.84;51.15;22452.72;5042635;28;20688;-63
2023/09/11 09:20:20;;;;;;;12.10;7.88;;;24.30;99.90;;;-141.84;51.09;22448.66;5042106;28;20515;-63
2023/09/11 09:22:55;;;;;;;15.25;8.57;;;24.40;99.90;;;-141.84;50.90;22483.25;5034373;28;20264;-62
2023/09/11 09:25:24;;;;;;;10.20;7.45;;;24.50;99.90;;;-141.84;50.61;22540.19;5042534;28;20232;-64
2023/09/11 09:27:54;;;;;;;10.82;8.38;;;24.60;99.90;;;-141.84;50.24;22578.81;5042278;28;20291;-63
2023/09/11 09:30:24;;;;;;;11.38;7.40;;;24.80;99.90;;;-141.84;50.10;22593.06;5041597;28;20259;-62
2023/09/11 09:32:53;;;;;;;9.65;7.70;;;24.90;99.90;;;-141.84;49.50;22652.03;5035852;28;20535;-62
2023/09/11 09:35:24;;;;;;;8.63;7.60;;;24.90;99.90;;;-141.84;49.51;22658.16;5041970;28;20225;-62
2023/09/11 09:37:55;;;;;;;15.18;7.97;;;25.00;99.90;;;-141.84;48.46;22763.91;5042190;28;20241;-64
2023/09/11 09:40:35;;;;;;;9.95;7.68;;;25.10;99.90;;;-141.84;48.67;22706.97;5042144;28;20233;-63
2023/09/11 09:43:06;;;;;;;9.32;7.53;;;25.20;99.90;;;-141.84;49.17;22706.97;5033629;28;20221;-65
2023/09/11 09:45:37;;;;;;;13.00;8.60;;;25.30;99.90;;;-141.84;47.68;22755.78;5042159;28;20727;-63
2023/09/11 09:48:10;;;;;;;9.95;7.50;;;25.40;99.90;;;-141.84;47.86;22806.63;5042188;28;20213;-63
2023/09/11 09:50:57;;;;;;;11.18;7.30;;;25.40;99.90;;;-141.84;47.00;22763.91;5041532;28;20233;-63
2023/09/11 09:53:29;;;;;;;9.25;7.22;;;25.40;99.90;;;-141.84;47.28;22818.81;5042350;28;20247;-63
2023/09/11 09:56:03;;;;;;;8.55;7.30;;;25.50;99.90;;;-141.84;47.14;22849.34;5035503;28;20358;-65
2023/09/11 09:58:36;;;;;;;8.02;7.22;;;25.60;99.90;;;-141.84;47.13;22851.38;5042242;28;20232;-63
2023/09/11 10:01:07;;;;;;;9.25;7.50;;;25.60;99.90;;;-141.84;47.13;22822.88;5034204;28;20316;-62
2023/09/11 10:03:41;;;;;;;9.77;7.70;;;25.60;99.90;;;-141.84;46.75;22855.44;5041958;28;20249;-62
2023/09/11 10:06:15;;;;;;;7.40;6.70;;;25.70;99.90;;;-141.84;46.71;22892.03;5044259;28;20213;-62